sensor_id;sensor_type;location;lat;lon;timestamp;P1;durP1;ratioP1;P2;durP2;ratioP2
53674;SDS011;39574;50.534;8.500;2023-09-19T00:04:11;5.5;;;2.0;;
53674;SDS011;39574;50.534;8.500;2023-09-19T00:09:12;5.3;;;1.9;;
53674;SDS011;39574;50.534;8.500;2023-09-19T00:14:10;6.1;;;1.9;;
53674;SDS011;39574;50.534;8.500;2023-09-19T00:19:09;7.4;;;2.0;;
53674;SDS011;39574;50.534;8.500;2023-09-19T00:24:10;7.5;;;1.9;;
53674;SDS011;39574;50.534;8.500;2023-09-19T00:29:09;7.7;;;2.0;;
53674;SDS011;39574;50.534;8.500;2023-09-19T00:34:07;6.7;;;2.0;;
53674;SDS011;39574;50.534;8.500;2023-09-19T00:39:06;5.9;;;2.1;;
53674;SDS011;39574;50.534;8.500;2023-09-19T00:44:06;5.6;;;2.0;;
53674;SDS011;39574;50.534;8.500;2023-09-19T00:49:06;5.1;;;2.0;;
53674;SDS011;39574;50.534;8.500;2023-09-19T00:54:05;4.9;;;2.0;;
53674;SDS011;39574;50.534;8.500;2023-09-19T00:59:04;5.5;;;2.0;;
53674;SDS011;39574;50.534;8.500;2023-09-19T01:04:05;5.3;;;2.0;;
53674;SDS011;39574;50.534;8.500;2023-09-19T01:09:03;5.5;;;2.1;;
53674;SDS011;39574;50.534;8.500;2023-09-19T01:14:03;5.6;;;2.1;;
53674;SDS011;39574;50.534;8.500;2023-09-19T01:19:07;5.2;;;1.9;;
53674;SDS011;39574;50.534;8.500;2023-09-19T01:24:36;5.7;;;2.0;;
53674;SDS011;39574;50.534;8.500;2023-09-19T01:29:08;6.0;;;2.0;;
53674;SDS011;39574;50.534;8.500;2023-09-19T01:34:00;5.8;;;2.0;;
53674;SDS011;39574;50.534;8.500;2023-09-19T01:39:00;6.1;;;2.2;;
53674;SDS011;39574;50.534;8.500;2023-09-19T01:43:58;5.8;;;2.2;;
53674;SDS011;39574;50.534;8.500;2023-09-19T01:49:00;6.1;;;2.2;;
53674;SDS011;39574;50.534;8.500;2023-09-19T01:53:59;5.8;;;2.2;;
53674;SDS011;39574;50.534;8.500;2023-09-19T01:58:57;5.5;;;2.1;;
53674;SDS011;39574;50.534;8.500;2023-09-19T02:03:56;6.3;;;2.1;;
53674;SDS011;39574;50.534;8.500;2023-09-19T02:08:55;6.2;;;2.2;;
53674;SDS011;39574;50.534;8.500;2023-09-19T02:13:55;6.1;;;2.3;;
53674;SDS011;39574;50.534;8.500;2023-09-19T02:18:54;6.0;;;2.4;;
53674;SDS011;39574;50.534;8.500;2023-09-19T02:23:53;6.3;;;2.4;;
53674;SDS011;39574;50.534;8.500;2023-09-19T02:28:55;5.7;;;2.2;;
53674;SDS011;39574;50.534;8.500;2023-09-19T02:33:52;6.0;;;2.1;;
53674;SDS011;39574;50.534;8.500;2023-09-19T02:38:51;5.7;;;2.1;;
53674;SDS011;39574;50.534;8.500;2023-09-19T02:43:51;5.7;;;2.1;;
53674;SDS011;39574;50.534;8.500;2023-09-19T02:48:50;5.5;;;2.0;;
53674;SDS011;39574;50.534;8.500;2023-09-19T02:53:50;5.4;;;2.0;;
53674;SDS011;39574;50.534;8.500;2023-09-19T02:58:49;5.3;;;2.0;;
53674;SDS011;39574;50.534;8.500;2023-09-19T03:03:48;5.3;;;2.0;;
53674;SDS011;39574;50.534;8.500;2023-09-19T03:08:49;4.9;;;2.0;;
53674;SDS011;39574;50.534;8.500;2023-09-19T03:13:51;5.0;;;1.8;;
53674;SDS011;39574;50.534;8.500;2023-09-19T03:23:46;6.1;;;1.9;;
53674;SDS011;39574;50.534;8.500;2023-09-19T03:28:45;6.5;;;2.0;;
53674;SDS011;39574;50.534;8.500;2023-09-19T03:33:45;6.3;;;2.0;;
53674;SDS011;39574;50.534;8.500;2023-09-19T03:38:44;6.7;;;2.0;;
53674;SDS011;39574;50.534;8.500;2023-09-19T03:43:45;6.4;;;2.0;;
53674;SDS011;39574;50.534;8.500;2023-09-19T03:48:43;6.4;;;2.1;;
53674;SDS011;39574;50.534;8.500;2023-09-19T03:53:43;6.9;;;2.1;;
53674;SDS011;39574;50.534;8.500;2023-09-19T03:58:41;7.5;;;2.2;;
53674;SDS011;39574;50.534;8.500;2023-09-19T04:03:41;9.8;;;2.5;;
53674;SDS011;39574;50.534;8.500;2023-09-19T04:08:40;10.5;;;2.4;;
53674;SDS011;39574;50.534;8.500;2023-09-19T04:13:39;10.2;;;2.5;;
53674;SDS011;39574;50.534;8.500;2023-09-19T04:18:39;8.9;;;2.2;;
53674;SDS011;39574;50.534;8.500;2023-09-19T04:23:38;9.3;;;2.3;;
53674;SDS011;39574;50.534;8.500;2023-09-19T04:28:37;7.9;;;2.1;;
53674;SDS011;39574;50.534;8.500;2023-09-19T04:33:36;8.0;;;2.2;;
53674;SDS011;39574;50.534;8.500;2023-09-19T04:38:38;9.2;;;2.3;;
53674;SDS011;39574;50.534;8.500;2023-09-19T04:43:38;8.9;;;2.4;;
53674;SDS011;39574;50.534;8.500;2023-09-19T04:48:36;8.8;;;2.3;;
53674;SDS011;39574;50.534;8.500;2023-09-19T04:53:34;8.4;;;2.2;;
53674;SDS011;39574;50.534;8.500;2023-09-19T04:58:33;8.3;;;2.3;;
53674;SDS011;39574;50.534;8.500;2023-09-19T05:03:32;7.7;;;2.2;;
53674;SDS011;39574;50.534;8.500;2023-09-19T05:08:32;7.8;;;2.2;;
53674;SDS011;39574;50.534;8.500;2023-09-19T05:13:31;7.0;;;2.1;;
53674;SDS011;39574;50.534;8.500;2023-09-19T05:18:33;7.3;;;2.0;;
53674;SDS011;39574;50.534;8.500;2023-09-19T05:23:32;7.1;;;2.0;;
53674;SDS011;39574;50.534;8.500;2023-09-19T05:28:29;7.4;;;2.2;;
53674;SDS011;39574;50.534;8.500;2023-09-19T05:33:29;7.1;;;2.2;;
53674;SDS011;39574;50.534;8.500;2023-09-19T05:38:28;7.1;;;2.2;;
53674;SDS011;39574;50.534;8.500;2023-09-19T05:43:27;7.2;;;2.1;;
53674;SDS011;39574;50.534;8.500;2023-09-19T05:48:27;6.9;;;2.1;;
53674;SDS011;39574;50.534;8.500;2023-09-19T05:53:26;7.0;;;2.0;;
53674;SDS011;39574;50.534;8.500;2023-09-19T06:03:25;6.9;;;2.0;;
53674;SDS011;39574;50.534;8.500;2023-09-19T06:08:24;7.8;;;2.1;;
53674;SDS011;39574;50.534;8.500;2023-09-19T06:13:24;7.8;;;2.2;;
53674;SDS011;39574;50.534;8.500;2023-09-19T06:18:23;8.5;;;2.4;;
53674;SDS011;39574;50.534;8.500;2023-09-19T06:23:22;7.8;;;2.2;;
53674;SDS011;39574;50.534;8.500;2023-09-19T06:28:22;7.8;;;2.4;;
53674;SDS011;39574;50.534;8.500;2023-09-19T06:33:21;8.2;;;2.4;;
53674;SDS011;39574;50.534;8.500;2023-09-19T06:38:20;8.0;;;2.4;;
53674;SDS011;39574;50.534;8.500;2023-09-19T06:43:20;8.4;;;2.4;;
53674;SDS011;39574;50.534;8.500;2023-09-19T06:48:19;7.8;;;2.3;;
53674;SDS011;39574;50.534;8.500;2023-09-19T06:53:18;7.7;;;2.3;;
53674;SDS011;39574;50.534;8.500;2023-09-19T06:58:18;8.3;;;2.3;;
53674;SDS011;39574;50.534;8.500;2023-09-19T07:03:17;8.1;;;2.3;;
53674;SDS011;39574;50.534;8.500;2023-09-19T07:08:16;7.6;;;2.3;;
53674;SDS011;39574;50.534;8.500;2023-09-19T07:13:16;7.0;;;2.2;;
53674;SDS011;39574;50.534;8.500;2023-09-19T07:18:15;6.6;;;2.2;;
53674;SDS011;39574;50.534;8.500;2023-09-19T07:23:15;7.1;;;2.3;;
53674;SDS011;39574;50.534;8.500;2023-09-19T07:28:15;7.8;;;2.4;;
53674;SDS011;39574;50.534;8.500;2023-09-19T07:38:13;8.1;;;2.5;;
53674;SDS011;39574;50.534;8.500;2023-09-19T07:48:12;8.1;;;2.5;;
53674;SDS011;39574;50.534;8.500;2023-09-19T07:53:11;8.0;;;2.5;;
53674;SDS011;39574;50.534;8.500;2023-09-19T07:58:11;8.0;;;2.5;;
53674;SDS011;39574;50.534;8.500;2023-09-19T08:03:10;7.3;;;2.6;;
53674;SDS011;39574;50.534;8.500;2023-09-19T08:08:09;6.7;;;2.6;;
53674;SDS011;39574;50.534;8.500;2023-09-19T08:13:08;8.0;;;2.6;;
53674;SDS011;39574;50.534;8.500;2023-09-19T08:18:08;7.9;;;2.6;;
53674;SDS011;39574;50.534;8.500;2023-09-19T08:28:07;8.7;;;2.6;;
53674;SDS011;39574;50.534;8.500;2023-09-19T08:33:06;9.4;;;2.7;;
53674;SDS011;39574;50.534;8.500;2023-09-19T08:38:06;10.3;;;2.8;;
53674;SDS011;39574;50.534;8.500;2023-09-19T08:43:05;9.8;;;2.7;;
53674;SDS011;39574;50.534;8.500;2023-09-19T08:48:10;9.7;;;2.8;;
53674;SDS011;39574;50.534;8.500;2023-09-19T08:58:03;9.5;;;2.7;;
53674;SDS011;39574;50.534;8.500;2023-09-19T09:03:03;9.6;;;2.8;;
53674;SDS011;39574;50.534;8.500;2023-09-19T09:08:02;9.1;;;2.8;;
53674;SDS011;39574;50.534;8.500;2023-09-19T09:13:01;8.8;;;2.7;;
53674;SDS011;39574;50.534;8.500;2023-09-19T09:18:00;8.2;;;2.6;;
53674;SDS011;39574;50.534;8.500;2023-09-19T09:22:59;8.5;;;2.5;;
53674;SDS011;39574;50.534;8.500;2023-09-19T09:27:59;8.9;;;2.6;;
53674;SDS011;39574;50.534;8.500;2023-09-19T09:33:07;10.8;;;2.7;;
53674;SDS011;39574;50.534;8.500;2023-09-19T09:38:03;9.3;;;2.5;;
53674;SDS011;39574;50.534;8.500;2023-09-19T09:42:57;8.6;;;2.5;;
53674;SDS011;39574;50.534;8.500;2023-09-19T09:47:57;9.1;;;2.8;;
53674;SDS011;39574;50.534;8.500;2023-09-19T09:52:56;9.3;;;2.7;;
53674;SDS011;39574;50.534;8.500;2023-09-19T09:58:27;11.0;;;2.8;;
53674;SDS011;39574;50.534;8.500;2023-09-19T10:02:55;11.7;;;2.8;;
53674;SDS011;39574;50.534;8.500;2023-09-19T10:07:54;10.7;;;2.7;;
53674;SDS011;39574;50.534;8.500;2023-09-19T10:12:54;9.3;;;2.7;;
53674;SDS011;39574;50.534;8.500;2023-09-19T10:22:52;9.3;;;2.9;;
53674;SDS011;39574;50.534;8.500;2023-09-19T10:27:53;9.0;;;2.9;;
53674;SDS011;39574;50.534;8.500;2023-09-19T10:32:57;9.1;;;2.8;;
53674;SDS011;39574;50.534;8.500;2023-09-19T10:37:51;9.3;;;2.9;;
53674;SDS011;39574;50.534;8.500;2023-09-19T10:47:50;8.8;;;2.8;;
53674;SDS011;39574;50.534;8.500;2023-09-19T10:52:49;9.1;;;2.8;;
53674;SDS011;39574;50.534;8.500;2023-09-19T10:57:49;10.0;;;3.0;;
53674;SDS011;39574;50.534;8.500;2023-09-19T11:03:22;10.3;;;3.0;;
53674;SDS011;39574;50.534;8.500;2023-09-19T11:07:58;10.8;;;3.0;;
53674;SDS011;39574;50.534;8.500;2023-09-19T11:12:47;11.1;;;2.9;;
53674;SDS011;39574;50.534;8.500;2023-09-19T11:17:46;10.3;;;2.9;;
53674;SDS011;39574;50.534;8.500;2023-09-19T11:23:17;10.1;;;2.9;;
53674;SDS011;39574;50.534;8.500;2023-09-19T11:28:01;9.8;;;2.8;;
53674;SDS011;39574;50.534;8.500;2023-09-19T11:33:17;9.2;;;2.7;;
53674;SDS011;39574;50.534;8.500;2023-09-19T11:37:59;9.5;;;2.8;;
53674;SDS011;39574;50.534;8.500;2023-09-19T11:42:44;9.9;;;2.9;;
53674;SDS011;39574;50.534;8.500;2023-09-19T11:47:44;10.1;;;3.0;;
53674;SDS011;39574;50.534;8.500;2023-09-19T11:52:43;9.4;;;2.8;;
53674;SDS011;39574;50.534;8.500;2023-09-19T11:57:42;8.7;;;2.7;;
53674;SDS011;39574;50.534;8.500;2023-09-19T12:02:42;8.5;;;2.7;;
53674;SDS011;39574;50.534;8.500;2023-09-19T12:07:42;8.4;;;2.8;;
53674;SDS011;39574;50.534;8.500;2023-09-19T12:12:41;8.6;;;3.0;;
53674;SDS011;39574;50.534;8.500;2023-09-19T12:17:41;9.0;;;2.9;;
53674;SDS011;39574;50.534;8.500;2023-09-19T12:22:40;9.2;;;3.0;;
53674;SDS011;39574;50.534;8.500;2023-09-19T12:27:41;9.1;;;2.9;;
53674;SDS011;39574;50.534;8.500;2023-09-19T12:32:41;8.7;;;2.9;;
53674;SDS011;39574;50.534;8.500;2023-09-19T12:37:42;8.9;;;2.9;;
53674;SDS011;39574;50.534;8.500;2023-09-19T12:42:38;8.5;;;2.9;;
53674;SDS011;39574;50.534;8.500;2023-09-19T12:47:38;8.3;;;3.0;;
53674;SDS011;39574;50.534;8.500;2023-09-19T12:52:40;8.0;;;3.0;;
53674;SDS011;39574;50.534;8.500;2023-09-19T12:57:37;7.9;;;2.9;;
53674;SDS011;39574;50.534;8.500;2023-09-19T13:02:37;7.9;;;2.8;;
53674;SDS011;39574;50.534;8.500;2023-09-19T13:07:40;7.9;;;2.7;;
53674;SDS011;39574;50.534;8.500;2023-09-19T13:12:37;7.4;;;2.6;;
53674;SDS011;39574;50.534;8.500;2023-09-19T13:17:42;7.5;;;2.6;;
53674;SDS011;39574;50.534;8.500;2023-09-19T13:22:37;7.8;;;2.6;;
53674;SDS011;39574;50.534;8.500;2023-09-19T13:27:35;8.7;;;2.8;;
53674;SDS011;39574;50.534;8.500;2023-09-19T13:32:34;8.2;;;2.7;;
53674;SDS011;39574;50.534;8.500;2023-09-19T13:37:34;8.3;;;2.7;;
53674;SDS011;39574;50.534;8.500;2023-09-19T13:42:33;8.2;;;2.6;;
53674;SDS011;39574;50.534;8.500;2023-09-19T13:47:33;8.2;;;2.6;;
53674;SDS011;39574;50.534;8.500;2023-09-19T13:52:33;7.6;;;2.7;;
53674;SDS011;39574;50.534;8.500;2023-09-19T13:57:32;7.9;;;2.6;;
53674;SDS011;39574;50.534;8.500;2023-09-19T14:02:33;7.6;;;2.5;;
53674;SDS011;39574;50.534;8.500;2023-09-19T14:07:31;7.6;;;2.6;;
53674;SDS011;39574;50.534;8.500;2023-09-19T14:12:31;7.6;;;2.5;;
53674;SDS011;39574;50.534;8.500;2023-09-19T14:17:31;7.7;;;2.4;;
53674;SDS011;39574;50.534;8.500;2023-09-19T14:22:30;8.6;;;2.4;;
53674;SDS011;39574;50.534;8.500;2023-09-19T14:27:30;8.2;;;2.3;;
53674;SDS011;39574;50.534;8.500;2023-09-19T14:32:30;8.6;;;2.4;;
53674;SDS011;39574;50.534;8.500;2023-09-19T14:37:31;8.8;;;2.5;;
53674;SDS011;39574;50.534;8.500;2023-09-19T14:42:29;8.4;;;2.5;;
53674;SDS011;39574;50.534;8.500;2023-09-19T14:47:30;8.0;;;2.5;;
53674;SDS011;39574;50.534;8.500;2023-09-19T14:52:28;8.5;;;2.6;;
53674;SDS011;39574;50.534;8.500;2023-09-19T14:57:28;9.0;;;2.5;;
53674;SDS011;39574;50.534;8.500;2023-09-19T15:02:29;8.6;;;2.5;;
53674;SDS011;39574;50.534;8.500;2023-09-19T15:12:27;7.4;;;2.3;;
53674;SDS011;39574;50.534;8.500;2023-09-19T15:17:26;6.9;;;2.3;;
53674;SDS011;39574;50.534;8.500;2023-09-19T15:22:26;6.5;;;2.1;;
53674;SDS011;39574;50.534;8.500;2023-09-19T15:27:26;6.9;;;2.3;;
53674;SDS011;39574;50.534;8.500;2023-09-19T15:32:25;6.6;;;2.3;;
53674;SDS011;39574;50.534;8.500;2023-09-19T15:37:25;6.5;;;2.3;;
53674;SDS011;39574;50.534;8.500;2023-09-19T15:42:25;7.2;;;2.4;;
53674;SDS011;39574;50.534;8.500;2023-09-19T15:47:24;6.9;;;2.2;;
53674;SDS011;39574;50.534;8.500;2023-09-19T15:52:24;6.7;;;2.2;;
53674;SDS011;39574;50.534;8.500;2023-09-19T15:57:25;6.9;;;2.2;;
53674;SDS011;39574;50.534;8.500;2023-09-19T16:02:23;7.5;;;2.2;;
53674;SDS011;39574;50.534;8.500;2023-09-19T16:07:23;7.1;;;2.2;;
53674;SDS011;39574;50.534;8.500;2023-09-19T16:12:24;6.9;;;2.2;;
53674;SDS011;39574;50.534;8.500;2023-09-19T16:17:23;6.5;;;2.2;;
53674;SDS011;39574;50.534;8.500;2023-09-19T16:22:22;6.8;;;2.2;;
53674;SDS011;39574;50.534;8.500;2023-09-19T16:27:22;6.6;;;2.1;;
53674;SDS011;39574;50.534;8.500;2023-09-19T16:32:21;7.2;;;2.1;;
53674;SDS011;39574;50.534;8.500;2023-09-19T16:37:21;6.8;;;2.0;;
53674;SDS011;39574;50.534;8.500;2023-09-19T16:42:21;6.8;;;2.1;;
53674;SDS011;39574;50.534;8.500;2023-09-19T16:47:23;6.7;;;2.2;;
53674;SDS011;39574;50.534;8.500;2023-09-19T16:52:21;7.0;;;2.5;;
53674;SDS011;39574;50.534;8.500;2023-09-19T16:57:21;6.2;;;2.5;;
53674;SDS011;39574;50.534;8.500;2023-09-19T17:02:19;6.0;;;2.3;;
53674;SDS011;39574;50.534;8.500;2023-09-19T17:07:19;5.7;;;2.1;;
53674;SDS011;39574;50.534;8.500;2023-09-19T17:12:19;6.8;;;2.1;;
53674;SDS011;39574;50.534;8.500;2023-09-19T17:17:18;6.6;;;2.0;;
53674;SDS011;39574;50.534;8.500;2023-09-19T17:22:18;6.9;;;2.0;;
53674;SDS011;39574;50.534;8.500;2023-09-19T17:27:17;6.4;;;1.9;;
53674;SDS011;39574;50.534;8.500;2023-09-19T17:32:17;5.7;;;1.9;;
53674;SDS011;39574;50.534;8.500;2023-09-19T17:37:16;5.4;;;1.7;;
53674;SDS011;39574;50.534;8.500;2023-09-19T17:42:16;5.7;;;1.8;;
53674;SDS011;39574;50.534;8.500;2023-09-19T17:47:15;6.1;;;1.7;;
53674;SDS011;39574;50.534;8.500;2023-09-19T17:52:15;6.2;;;1.6;;
53674;SDS011;39574;50.534;8.500;2023-09-19T17:57:16;6.3;;;1.7;;
53674;SDS011;39574;50.534;8.500;2023-09-19T18:02:16;5.9;;;1.8;;
53674;SDS011;39574;50.534;8.500;2023-09-19T18:07:13;5.6;;;1.8;;
53674;SDS011;39574;50.534;8.500;2023-09-19T18:12:13;5.7;;;1.8;;
53674;SDS011;39574;50.534;8.500;2023-09-19T18:17:13;5.5;;;1.7;;
53674;SDS011;39574;50.534;8.500;2023-09-19T18:22:12;5.6;;;1.8;;
53674;SDS011;39574;50.534;8.500;2023-09-19T18:27:11;6.3;;;1.9;;
53674;SDS011;39574;50.534;8.500;2023-09-19T18:32:11;6.4;;;1.9;;
53674;SDS011;39574;50.534;8.500;2023-09-19T18:37:12;6.2;;;1.9;;
53674;SDS011;39574;50.534;8.500;2023-09-19T18:42:10;6.8;;;1.9;;
53674;SDS011;39574;50.534;8.500;2023-09-19T18:47:09;6.4;;;1.9;;
53674;SDS011;39574;50.534;8.500;2023-09-19T18:52:09;6.2;;;1.9;;
53674;SDS011;39574;50.534;8.500;2023-09-19T18:57:08;6.2;;;1.9;;
53674;SDS011;39574;50.534;8.500;2023-09-19T19:07:07;6.6;;;1.9;;
53674;SDS011;39574;50.534;8.500;2023-09-19T19:12:08;6.5;;;1.9;;
53674;SDS011;39574;50.534;8.500;2023-09-19T19:17:08;6.2;;;1.9;;
53674;SDS011;39574;50.534;8.500;2023-09-19T19:22:05;6.2;;;1.9;;
53674;SDS011;39574;50.534;8.500;2023-09-19T19:27:05;6.1;;;1.9;;
53674;SDS011;39574;50.534;8.500;2023-09-19T19:32:04;6.4;;;2.0;;
53674;SDS011;39574;50.534;8.500;2023-09-19T19:37:04;6.5;;;2.1;;
53674;SDS011;39574;50.534;8.500;2023-09-19T19:42:05;5.9;;;2.0;;
53674;SDS011;39574;50.534;8.500;2023-09-19T19:47:02;6.4;;;2.0;;
53674;SDS011;39574;50.534;8.500;2023-09-19T19:52:04;6.7;;;2.0;;
53674;SDS011;39574;50.534;8.500;2023-09-19T19:57:01;6.4;;;2.0;;
53674;SDS011;39574;50.534;8.500;2023-09-19T20:02:00;5.7;;;1.9;;
53674;SDS011;39574;50.534;8.500;2023-09-19T20:07:00;5.6;;;2.0;;
53674;SDS011;39574;50.534;8.500;2023-09-19T20:11:59;5.9;;;2.0;;
53674;SDS011;39574;50.534;8.500;2023-09-19T20:16:59;6.1;;;2.0;;
53674;SDS011;39574;50.534;8.500;2023-09-19T20:21:58;6.8;;;2.1;;
53674;SDS011;39574;50.534;8.500;2023-09-19T20:26:57;6.2;;;2.0;;
53674;SDS011;39574;50.534;8.500;2023-09-19T20:31:57;5.7;;;1.9;;
53674;SDS011;39574;50.534;8.500;2023-09-19T20:36:56;6.0;;;1.9;;
53674;SDS011;39574;50.534;8.500;2023-09-19T20:41:55;6.2;;;2.0;;
53674;SDS011;39574;50.534;8.500;2023-09-19T20:46:55;6.6;;;2.0;;
53674;SDS011;39574;50.534;8.500;2023-09-19T20:51:54;6.5;;;2.1;;
53674;SDS011;39574;50.534;8.500;2023-09-19T20:56:53;6.4;;;2.0;;
53674;SDS011;39574;50.534;8.500;2023-09-19T21:01:53;5.9;;;2.0;;
53674;SDS011;39574;50.534;8.500;2023-09-19T21:06:53;5.3;;;1.9;;
53674;SDS011;39574;50.534;8.500;2023-09-19T21:11:51;5.4;;;1.9;;
53674;SDS011;39574;50.534;8.500;2023-09-19T21:16:53;6.2;;;1.7;;
53674;SDS011;39574;50.534;8.500;2023-09-19T21:21:52;5.8;;;1.7;;
53674;SDS011;39574;50.534;8.500;2023-09-19T21:26:49;5.5;;;1.7;;
53674;SDS011;39574;50.534;8.500;2023-09-19T21:31:50;5.7;;;1.8;;
53674;SDS011;39574;50.534;8.500;2023-09-19T21:36:48;5.5;;;1.9;;
53674;SDS011;39574;50.534;8.500;2023-09-19T21:41:47;5.6;;;1.9;;
53674;SDS011;39574;50.534;8.500;2023-09-19T21:46:47;5.4;;;1.8;;
53674;SDS011;39574;50.534;8.500;2023-09-19T21:51:46;6.2;;;1.8;;
53674;SDS011;39574;50.534;8.500;2023-09-19T21:56:46;5.7;;;1.8;;
53674;SDS011;39574;50.534;8.500;2023-09-19T22:01:45;5.0;;;1.7;;
53674;SDS011;39574;50.534;8.500;2023-09-19T22:06:44;5.7;;;1.8;;
53674;SDS011;39574;50.534;8.500;2023-09-19T22:11:44;6.2;;;1.7;;
53674;SDS011;39574;50.534;8.500;2023-09-19T22:16:43;5.8;;;1.8;;
53674;SDS011;39574;50.534;8.500;2023-09-19T22:21:44;5.6;;;1.8;;
53674;SDS011;39574;50.534;8.500;2023-09-19T22:26:44;6.2;;;1.9;;
53674;SDS011;39574;50.534;8.500;2023-09-19T22:31:41;5.5;;;1.9;;
53674;SDS011;39574;50.534;8.500;2023-09-19T22:36:40;5.6;;;1.9;;
53674;SDS011;39574;50.534;8.500;2023-09-19T22:41:40;5.7;;;1.9;;
53674;SDS011;39574;50.534;8.500;2023-09-19T22:46:39;6.1;;;2.0;;
53674;SDS011;39574;50.534;8.500;2023-09-19T22:51:39;6.2;;;1.9;;
53674;SDS011;39574;50.534;8.500;2023-09-19T22:56:38;5.8;;;1.8;;
53674;SDS011;39574;50.534;8.500;2023-09-19T23:01:37;5.7;;;1.9;;
53674;SDS011;39574;50.534;8.500;2023-09-19T23:06:38;5.4;;;1.9;;
53674;SDS011;39574;50.534;8.500;2023-09-19T23:11:38;5.5;;;1.9;;
53674;SDS011;39574;50.534;8.500;2023-09-19T23:16:39;5.6;;;2.0;;
53674;SDS011;39574;50.534;8.500;2023-09-19T23:21:35;6.2;;;2.0;;
53674;SDS011;39574;50.534;8.500;2023-09-19T23:26:34;6.3;;;2.1;;
53674;SDS011;39574;50.534;8.500;2023-09-19T23:31:34;6.4;;;2.1;;
53674;SDS011;39574;50.534;8.500;2023-09-19T23:36:33;6.1;;;2.1;;
53674;SDS011;39574;50.534;8.500;2023-09-19T23:41:33;6.6;;;2.1;;
53674;SDS011;39574;50.534;8.500;2023-09-19T23:46:32;6.6;;;2.1;;
53674;SDS011;39574;50.534;8.500;2023-09-19T23:51:33;6.7;;;2.2;;
53674;SDS011;39574;50.534;8.500;2023-09-19T23:56:31;7.3;;;2.1;;
